createdAt,value
2023-04-19T00:01:45.785Z,100.00
2023-04-19T00:04:16.191Z,100.00
2023-04-19T00:06:46.189Z,100.00
2023-04-19T00:09:15.437Z,100.00
2023-04-19T00:11:44.381Z,100.00
2023-04-19T00:14:13.521Z,100.00
2023-04-19T00:16:44.178Z,100.00
2023-04-19T00:19:13.276Z,100.00
2023-04-19T00:21:42.447Z,100.00
2023-04-19T00:24:11.520Z,100.00
2023-04-19T00:26:40.644Z,100.00
2023-04-19T00:29:09.706Z,100.00
2023-04-19T00:31:40.864Z,100.00
2023-04-19T00:34:11.313Z,100.00
2023-04-19T00:36:40.333Z,100.00
2023-04-19T00:39:11.822Z,100.00
2023-04-19T00:41:40.962Z,100.00
2023-04-19T00:44:09.946Z,100.00
2023-04-19T00:46:39.468Z,100.00
2023-04-19T00:49:10.474Z,100.00
2023-04-19T00:51:40.138Z,100.00
2023-04-19T00:54:09.734Z,100.00
2023-04-19T00:56:39.202Z,100.00
2023-04-19T00:59:08.742Z,100.00
2023-04-19T01:01:40.156Z,100.00
2023-04-19T01:04:11.173Z,100.00
2023-04-19T01:06:42.859Z,100.00
2023-04-19T01:09:13.450Z,100.00
2023-04-19T01:11:43.741Z,100.00
2023-04-19T01:14:12.959Z,100.00
2023-04-19T01:16:42.243Z,100.00
2023-04-19T01:19:13.171Z,100.00
2023-04-19T01:21:43.779Z,100.00
2023-04-19T01:24:14.393Z,100.00
2023-04-19T01:26:43.630Z,100.00
2023-04-19T01:29:12.721Z,100.00
2023-04-19T01:31:41.848Z,100.00
2023-04-19T01:34:10.975Z,100.00
2023-04-19T01:36:40.906Z,100.00
2023-04-19T01:39:10.908Z,100.00
2023-04-19T01:41:43.397Z,100.00
2023-04-19T01:44:13.382Z,100.00
2023-04-19T01:46:42.822Z,100.00
2023-04-19T01:49:11.877Z,100.00
2023-04-19T01:51:41.132Z,100.00
2023-04-19T01:54:10.190Z,100.00
2023-04-19T01:56:39.352Z,100.00
2023-04-19T01:59:09.775Z,100.00
2023-04-19T02:01:38.883Z,100.00
2023-04-19T02:04:08.917Z,100.00
2023-04-19T02:06:37.951Z,100.00
2023-04-19T02:09:06.973Z,100.00
2023-04-19T02:11:36.000Z,100.00
2023-04-19T02:14:05.029Z,100.00
2023-04-19T02:16:36.694Z,100.00
2023-04-19T02:19:06.155Z,100.00
2023-04-19T02:21:35.529Z,100.00
2023-04-19T02:24:04.793Z,100.00
2023-04-19T02:26:33.810Z,100.00
2023-04-19T02:29:04.505Z,100.00
2023-04-19T02:31:37.994Z,100.00
2023-04-19T02:34:07.095Z,100.00
2023-04-19T02:36:36.180Z,100.00
2023-04-19T02:39:05.616Z,100.00
2023-04-19T02:41:34.653Z,100.00
2023-04-19T02:44:04.111Z,100.00
2023-04-19T02:46:33.160Z,100.00
2023-04-19T02:49:03.707Z,100.00
2023-04-19T02:51:32.844Z,100.00
2023-04-19T02:54:02.039Z,100.00
2023-04-19T02:56:31.065Z,100.00
2023-04-19T02:59:02.214Z,100.00
2023-04-19T03:01:32.455Z,100.00
2023-04-19T03:04:06.323Z,100.00
2023-04-19T03:06:36.380Z,100.00
2023-04-19T03:09:05.686Z,100.00
2023-04-19T03:11:34.652Z,100.00
2023-04-19T03:14:03.785Z,100.00
2023-04-19T03:16:33.783Z,100.00
2023-04-19T03:19:04.983Z,100.00
2023-04-19T03:21:40.374Z,100.00
2023-04-19T03:24:10.253Z,100.00
2023-04-19T03:26:42.773Z,100.00
2023-04-19T03:29:12.100Z,100.00
2023-04-19T03:31:55.310Z,100.00
2023-04-19T03:34:25.841Z,100.00
2023-04-19T03:36:54.914Z,100.00
2023-04-19T03:39:24.071Z,100.00
2023-04-19T03:41:57.579Z,100.00
2023-04-19T03:44:58.865Z,100.00
2023-04-19T03:47:29.537Z,100.00
2023-04-19T03:50:01.590Z,100.00
2023-04-19T03:52:33.167Z,100.00
2023-04-19T03:55:02.604Z,100.00
2023-04-19T03:57:41.044Z,100.00
2023-04-19T04:00:21.158Z,100.00
2023-04-19T04:02:58.049Z,100.00
2023-04-19T04:05:31.212Z,100.00
2023-04-19T04:08:03.928Z,100.00
2023-04-19T04:10:33.969Z,100.00
2023-04-19T04:13:03.576Z,100.00
2023-04-19T04:15:55.552Z,100.00
2023-04-19T04:18:24.670Z,100.00
2023-04-19T04:20:55.312Z,100.00
2023-04-19T04:23:26.602Z,100.00
2023-04-19T04:26:00.807Z,100.00
2023-04-19T04:28:40.476Z,100.00
2023-04-19T04:31:09.990Z,100.00
2023-04-19T04:33:39.129Z,100.00
2023-04-19T04:36:13.623Z,100.00
2023-04-19T04:38:43.659Z,100.00
2023-04-19T04:41:13.222Z,100.00
2023-04-19T04:43:42.603Z,100.00
2023-04-19T04:46:13.119Z,100.00
2023-04-19T04:48:43.975Z,100.00
2023-04-19T04:51:14.467Z,100.00
2023-04-19T04:53:47.657Z,100.00
2023-04-19T04:56:17.214Z,100.00
2023-04-19T04:58:46.574Z,100.00
2023-04-19T05:01:21.641Z,100.00
2023-04-19T05:03:50.946Z,100.00
2023-04-19T05:06:23.316Z,100.00
2023-04-19T05:08:52.458Z,100.00
2023-04-19T05:11:34.079Z,100.00
2023-04-19T05:14:03.586Z,100.00
2023-04-19T05:16:34.902Z,100.00
2023-04-19T05:19:05.602Z,100.00
2023-04-19T05:21:41.889Z,100.00
2023-04-19T05:24:12.349Z,100.00
2023-04-19T05:26:42.583Z,100.00
2023-04-19T05:29:12.756Z,100.00
2023-04-19T05:31:47.747Z,100.00
2023-04-19T05:34:24.525Z,100.00
2023-04-19T05:36:57.505Z,100.00
2023-04-19T05:39:26.828Z,100.00
2023-04-19T05:41:55.934Z,100.00
2023-04-19T05:44:25.052Z,100.00
2023-04-19T05:46:54.165Z,100.00
2023-04-19T05:49:43.384Z,100.00
2023-04-19T05:52:24.734Z,100.00
2023-04-19T05:54:57.720Z,100.00
2023-04-19T05:57:27.318Z,100.00
2023-04-19T05:59:56.457Z,100.00
2023-04-19T06:02:29.294Z,100.00
2023-04-19T06:05:02.410Z,100.00
2023-04-19T06:10:08.855Z,100.00
2023-04-19T06:12:37.996Z,100.00
2023-04-19T06:15:08.878Z,100.00
2023-04-19T06:17:38.394Z,100.00
2023-04-19T06:20:10.218Z,100.00
2023-04-19T06:22:46.306Z,100.00
2023-04-19T06:25:15.534Z,100.00
2023-04-19T06:27:44.574Z,100.00
2023-04-19T06:30:13.961Z,100.00
2023-04-19T06:32:43.194Z,100.00
2023-04-19T06:35:12.643Z,100.00
2023-04-19T06:37:41.749Z,100.00
2023-04-19T06:40:13.101Z,100.00
2023-04-19T06:42:42.154Z,100.00
2023-04-19T06:45:12.833Z,100.00
2023-04-19T06:47:42.107Z,100.00
2023-04-19T06:50:12.454Z,100.00
2023-04-19T06:52:41.577Z,100.00
2023-04-19T06:55:12.646Z,100.00
2023-04-19T06:57:42.577Z,100.00
2023-04-19T07:00:13.971Z,100.00
2023-04-19T07:02:43.173Z,100.00
2023-04-19T07:05:13.419Z,100.00
2023-04-19T07:07:42.537Z,100.00
2023-04-19T07:10:13.611Z,100.00
2023-04-19T07:12:42.782Z,100.00
2023-04-19T07:15:13.037Z,100.00
2023-04-19T07:17:42.245Z,100.00
2023-04-19T07:20:12.364Z,100.00
2023-04-19T07:22:41.490Z,100.00
2023-04-19T07:25:12.782Z,100.00
2023-04-19T07:27:42.055Z,100.00
2023-04-19T07:30:12.298Z,100.00
2023-04-19T07:32:41.608Z,100.00
2023-04-19T07:35:11.363Z,100.00
2023-04-19T07:37:40.448Z,100.00
2023-04-19T07:40:12.827Z,100.00
2023-04-19T07:42:42.173Z,100.00
2023-04-19T07:45:12.286Z,100.00
2023-04-19T07:47:41.349Z,100.00
2023-04-19T07:50:12.507Z,100.00
2023-04-19T07:52:41.671Z,100.00
2023-04-19T07:55:12.407Z,100.00
2023-04-19T07:57:46.079Z,100.00
2023-04-19T08:00:16.445Z,100.00
2023-04-19T08:02:46.296Z,100.00
2023-04-19T08:05:17.934Z,100.00
2023-04-19T08:07:47.437Z,100.00
2023-04-19T08:10:17.833Z,97.95
2023-04-19T08:13:03.802Z,98.18
2023-04-19T08:18:07.781Z,99.00
2023-04-19T08:20:37.007Z,99.03
2023-04-19T08:23:20.675Z,97.21
2023-04-19T08:25:53.187Z,100.00
2023-04-19T08:28:22.249Z,100.00
2023-04-19T08:30:51.362Z,100.00
2023-04-19T08:33:20.347Z,100.00
2023-04-19T08:35:49.524Z,100.00
2023-04-19T08:38:18.481Z,100.00
2023-04-19T08:40:52.811Z,100.00
2023-04-19T08:43:25.422Z,100.00
2023-04-19T08:45:56.539Z,98.42
2023-04-19T08:48:28.326Z,100.00
2023-04-19T08:51:04.882Z,99.85
2023-04-19T08:53:35.709Z,98.60
2023-04-19T08:56:17.493Z,100.00
2023-04-19T08:59:04.105Z,98.38
2023-04-19T09:01:43.743Z,98.25
2023-04-19T09:04:31.845Z,97.52
2023-04-19T09:07:02.729Z,98.16
2023-04-19T09:09:39.202Z,97.96
2023-04-19T09:12:19.074Z,95.82
2023-04-19T09:15:01.209Z,97.53
2023-04-19T09:17:31.250Z,98.39
2023-04-19T09:20:01.008Z,97.04
2023-04-19T09:22:30.073Z,96.69
2023-04-19T09:27:35.327Z,96.68
2023-04-19T09:30:17.668Z,99.43
2023-04-19T09:32:53.489Z,98.35
2023-04-19T09:35:22.588Z,95.44
2023-04-19T09:40:34.224Z,95.33
2023-04-19T09:45:45.117Z,94.19
2023-04-19T09:48:15.504Z,94.88
2023-04-19T09:51:01.831Z,94.76
2023-04-19T09:53:35.236Z,95.77
2023-04-19T09:56:06.286Z,96.94
2023-04-19T09:58:46.895Z,97.87
2023-04-19T10:01:22.927Z,98.50
2023-04-19T10:03:55.942Z,98.79
2023-04-19T10:08:57.936Z,90.81
2023-04-19T10:11:33.810Z,88.99
2023-04-19T10:14:05.300Z,90.14
2023-04-19T10:16:37.567Z,90.42
2023-04-19T10:19:10.453Z,90.30
2023-04-19T10:21:40.796Z,89.85
2023-04-19T10:24:13.923Z,92.18
2023-04-19T10:27:11.492Z,88.25
2023-04-19T10:30:01.020Z,89.89
2023-04-19T10:32:40.840Z,90.37
2023-04-19T10:35:12.884Z,90.74
2023-04-19T10:38:02.893Z,91.41
2023-04-19T10:41:00.761Z,93.71
2023-04-19T10:43:34.394Z,96.05
2023-04-19T10:46:09.388Z,97.64
2023-04-19T10:48:56.124Z,100.00
2023-04-19T10:51:28.988Z,100.00
2023-04-19T10:53:59.934Z,99.63
2023-04-19T10:57:02.213Z,99.18
2023-04-19T10:59:32.620Z,100.00
2023-04-19T11:02:04.340Z,100.00
2023-04-19T11:05:05.572Z,100.00
2023-04-19T11:07:42.283Z,100.00
2023-04-19T11:10:12.594Z,100.00
2023-04-19T11:12:46.106Z,100.00
2023-04-19T11:15:15.215Z,100.00
2023-04-19T11:17:44.383Z,100.00
2023-04-19T11:20:15.139Z,100.00
2023-04-19T11:22:47.298Z,99.84
2023-04-19T11:25:19.109Z,99.41
2023-04-19T11:27:49.745Z,97.50
2023-04-19T11:30:22.774Z,94.96
2023-04-19T11:32:56.283Z,90.28
2023-04-19T11:35:30.411Z,87.49
2023-04-19T11:38:01.632Z,85.40
2023-04-19T11:40:30.878Z,85.21
2023-04-19T11:43:02.220Z,83.00
2023-04-19T11:45:37.575Z,80.55
2023-04-19T11:48:09.223Z,76.58
2023-04-19T11:50:42.124Z,72.88
2023-04-19T11:53:16.664Z,71.27
2023-04-19T11:55:47.657Z,71.33
2023-04-19T11:58:29.543Z,68.49
2023-04-19T12:01:04.178Z,61.95
2023-04-19T12:03:33.508Z,53.41
2023-04-19T12:06:09.106Z,55.34
2023-04-19T12:08:40.458Z,56.54
2023-04-19T12:11:09.627Z,50.96
2023-04-19T12:13:40.786Z,51.34
2023-04-19T12:16:10.277Z,53.63
2023-04-19T12:18:49.010Z,57.29
2023-04-19T12:21:32.170Z,59.27
2023-04-19T12:24:03.753Z,62.97
2023-04-19T12:26:33.414Z,64.36
2023-04-19T12:29:04.462Z,66.42
2023-04-19T12:31:33.966Z,67.01
2023-04-19T12:34:03.101Z,71.76
2023-04-19T12:36:33.440Z,73.30
2023-04-19T12:39:02.511Z,75.04
2023-04-19T12:41:32.575Z,75.53
2023-04-19T12:44:01.590Z,77.68
2023-04-19T12:46:30.691Z,79.48
2023-04-19T12:48:59.849Z,81.74
2023-04-19T12:51:29.072Z,84.77
2023-04-19T12:53:59.843Z,88.53
2023-04-19T12:56:28.893Z,86.21
2023-04-19T12:58:57.971Z,85.34
2023-04-19T13:01:27.103Z,86.24
2023-04-19T13:03:59.041Z,84.86
2023-04-19T13:06:28.861Z,84.03
2023-04-19T13:09:01.100Z,83.76
2023-04-19T13:11:30.729Z,82.02
2023-04-19T13:13:59.754Z,83.49
2023-04-19T13:16:28.774Z,81.41
2023-04-19T13:18:57.783Z,83.24
2023-04-19T13:21:27.983Z,85.10
2023-04-19T13:23:59.112Z,88.99
2023-04-19T13:26:29.636Z,89.60
2023-04-19T13:28:58.726Z,91.58
2023-04-19T13:31:28.171Z,94.18
2023-04-19T13:33:57.870Z,96.55
2023-04-19T13:36:28.042Z,98.98
2023-04-19T13:38:57.224Z,98.48
2023-04-19T13:41:26.216Z,100.00
2023-04-19T13:43:56.590Z,100.00
2023-04-19T13:46:25.666Z,100.00
2023-04-19T13:48:54.785Z,100.00
2023-04-19T13:51:23.914Z,100.00
2023-04-19T13:53:52.998Z,100.00
2023-04-19T13:56:22.434Z,100.00
2023-04-19T13:58:51.459Z,100.00
2023-04-19T14:01:22.312Z,100.00
2023-04-19T14:03:51.537Z,100.00
2023-04-19T14:06:20.652Z,100.00
2023-04-19T14:08:51.291Z,100.00
2023-04-19T14:11:20.912Z,100.00
2023-04-19T14:13:50.010Z,100.00
2023-04-19T14:16:20.673Z,100.00
2023-04-19T14:18:51.393Z,100.00
2023-04-19T14:21:21.021Z,100.00
2023-04-19T14:23:50.352Z,100.00
2023-04-19T14:26:19.331Z,100.00
2023-04-19T14:28:48.339Z,100.00
2023-04-19T14:31:17.454Z,100.00
2023-04-19T14:33:46.653Z,100.00
2023-04-19T14:36:17.998Z,100.00
2023-04-19T14:38:47.109Z,100.00
2023-04-19T14:41:16.103Z,100.00
2023-04-19T14:43:45.196Z,100.00
2023-04-19T14:46:14.439Z,100.00
2023-04-19T14:48:43.660Z,100.00
2023-04-19T14:51:12.740Z,100.00
2023-04-19T14:53:43.083Z,100.00
2023-04-19T14:56:12.095Z,100.00
2023-04-19T14:58:41.123Z,100.00
2023-04-19T15:01:14.370Z,100.00
2023-04-19T15:03:43.741Z,100.00
2023-04-19T15:06:12.873Z,100.00
2023-04-19T15:08:43.306Z,100.00
2023-04-19T15:11:12.424Z,100.00
2023-04-19T15:13:41.905Z,100.00
2023-04-19T15:16:11.154Z,100.00
2023-04-19T15:18:40.598Z,100.00
2023-04-19T15:21:09.556Z,100.00
2023-04-19T15:23:38.618Z,100.00
2023-04-19T15:26:09.008Z,100.00
2023-04-19T15:28:41.553Z,100.00
2023-04-19T15:31:10.721Z,100.00
2023-04-19T15:33:39.912Z,100.00
2023-04-19T15:36:09.230Z,100.00
2023-04-19T15:38:38.321Z,100.00
2023-04-19T15:41:08.686Z,100.00
2023-04-19T15:43:37.674Z,100.00
2023-04-19T15:46:06.938Z,100.00
2023-04-19T15:48:35.978Z,100.00
2023-04-19T15:51:05.272Z,100.00
2023-04-19T15:53:34.379Z,100.00
2023-04-19T15:56:03.479Z,100.00
2023-04-19T15:58:33.932Z,100.00
2023-04-19T16:01:02.982Z,100.00
2023-04-19T16:03:32.143Z,100.00
2023-04-19T16:06:01.453Z,100.00
2023-04-19T16:08:30.568Z,100.00
2023-04-19T16:10:59.932Z,100.00
2023-04-19T16:13:31.380Z,100.00
2023-04-19T16:16:02.296Z,100.00
2023-04-19T16:18:31.560Z,100.00
2023-04-19T16:21:00.814Z,100.00
2023-04-19T16:23:30.071Z,100.00
2023-04-19T16:25:59.341Z,100.00
2023-04-19T16:28:29.283Z,100.00
2023-04-19T16:30:58.632Z,100.00
2023-04-19T16:33:29.188Z,100.00
2023-04-19T16:35:58.478Z,100.00
2023-04-19T16:38:27.525Z,100.00
2023-04-19T16:40:59.241Z,100.00
2023-04-19T16:43:28.370Z,100.00
2023-04-19T16:45:57.408Z,100.00
2023-04-19T16:48:26.457Z,100.00
2023-04-19T16:50:57.286Z,100.00
2023-04-19T16:53:26.386Z,100.00
2023-04-19T16:55:56.639Z,100.00
2023-04-19T16:58:27.033Z,100.00
2023-04-19T17:00:57.049Z,100.00
2023-04-19T17:03:26.584Z,100.00
2023-04-19T17:05:57.712Z,100.00
2023-04-19T17:08:26.812Z,100.00
2023-04-19T17:10:56.001Z,100.00
2023-04-19T17:13:25.070Z,100.00
2023-04-19T17:15:54.430Z,100.00
2023-04-19T17:18:26.304Z,100.00
2023-04-19T17:20:57.189Z,98.98
2023-04-19T17:23:26.900Z,100.00
2023-04-19T17:25:55.905Z,100.00
2023-04-19T17:28:25.379Z,100.00
2023-04-19T17:30:54.584Z,100.00
2023-04-19T17:33:23.922Z,100.00
2023-04-19T17:35:53.036Z,100.00
2023-04-19T17:38:23.567Z,100.00
2023-04-19T17:40:52.637Z,100.00
2023-04-19T17:43:21.958Z,100.00
2023-04-19T17:45:50.985Z,100.00
2023-04-19T17:48:19.981Z,100.00
2023-04-19T17:50:49.428Z,100.00
2023-04-19T17:53:18.869Z,100.00
2023-04-19T17:55:49.447Z,100.00
2023-04-19T17:58:18.692Z,100.00
2023-04-19T18:00:47.952Z,100.00
2023-04-19T18:03:17.345Z,100.00
2023-04-19T18:05:54.799Z,100.00
2023-04-19T18:08:24.646Z,100.00
2023-04-19T18:10:55.581Z,99.98
2023-04-19T18:13:24.947Z,96.36
2023-04-19T18:15:54.635Z,98.41
2023-04-19T18:18:23.844Z,98.39
2023-04-19T18:20:52.971Z,96.21
2023-04-19T18:23:22.145Z,96.10
2023-04-19T18:25:56.285Z,97.48
2023-04-19T18:28:25.485Z,97.34
2023-04-19T18:31:00.870Z,99.39
2023-04-19T18:33:30.749Z,97.44
2023-04-19T18:35:59.920Z,98.22
2023-04-19T18:38:29.337Z,96.59
2023-04-19T18:41:00.036Z,99.32
2023-04-19T18:43:30.805Z,100.00
2023-04-19T18:46:01.413Z,100.00
2023-04-19T18:48:30.772Z,100.00
2023-04-19T18:50:59.855Z,100.00
2023-04-19T18:53:30.756Z,100.00
2023-04-19T18:56:03.342Z,100.00
2023-04-19T18:58:32.818Z,100.00
2023-04-19T19:01:02.155Z,100.00
2023-04-19T19:03:58.093Z,100.00
2023-04-19T19:06:21.277Z,100.00
2023-04-19T19:08:50.482Z,100.00
2023-04-19T19:11:46.944Z,100.00
2023-04-19T19:14:11.067Z,100.00
2023-04-19T19:16:50.954Z,100.00
2023-04-19T19:19:22.524Z,100.00
2023-04-19T19:21:52.211Z,100.00
2023-04-19T19:24:21.268Z,100.00
2023-04-19T19:26:51.723Z,100.00
2023-04-19T19:29:22.478Z,100.00
2023-04-19T19:31:51.970Z,100.00
2023-04-19T19:34:28.861Z,100.00
2023-04-19T19:36:59.307Z,100.00
2023-04-19T19:39:28.385Z,100.00
2023-04-19T19:42:05.404Z,100.00
2023-04-19T19:44:35.624Z,100.00
2023-04-19T19:47:09.706Z,100.00
2023-04-19T19:49:55.198Z,100.00
2023-04-19T19:52:30.160Z,100.00
2023-04-19T19:54:59.622Z,100.00
2023-04-19T19:58:18.626Z,100.00
2023-04-19T20:02:54.878Z,100.00
2023-04-19T20:05:26.340Z,100.00
2023-04-19T20:08:08.540Z,100.00
2023-04-19T20:10:42.324Z,100.00
2023-04-19T20:13:14.409Z,100.00
2023-04-19T20:15:47.387Z,100.00
2023-04-19T20:18:17.101Z,100.00
2023-04-19T20:20:46.162Z,100.00
2023-04-19T20:23:16.705Z,100.00
2023-04-19T20:25:46.660Z,100.00
2023-04-19T20:28:17.731Z,100.00
2023-04-19T20:30:47.005Z,100.00
2023-04-19T20:33:16.051Z,100.00
2023-04-19T20:35:48.356Z,100.00
2023-04-19T20:38:18.496Z,100.00
2023-04-19T20:40:47.824Z,100.00
2023-04-19T20:43:18.317Z,100.00
2023-04-19T20:45:47.478Z,100.00
2023-04-19T20:48:20.288Z,100.00
2023-04-19T20:50:49.756Z,100.00
2023-04-19T20:53:24.107Z,100.00
2023-04-19T20:55:53.724Z,100.00
2023-04-19T20:58:24.286Z,100.00
2023-04-19T21:00:53.776Z,100.00
2023-04-19T21:03:23.057Z,100.00
2023-04-19T21:05:52.253Z,100.00
2023-04-19T21:08:22.138Z,100.00
2023-04-19T21:10:51.494Z,100.00
2023-04-19T21:13:20.604Z,100.00
2023-04-19T21:15:51.114Z,100.00
2023-04-19T21:18:20.356Z,100.00
2023-04-19T21:20:49.498Z,100.00
2023-04-19T21:23:20.712Z,100.00
2023-04-19T21:25:49.787Z,100.00
2023-04-19T21:28:18.951Z,100.00
2023-04-19T21:30:48.041Z,100.00
2023-04-19T21:33:18.768Z,100.00
2023-04-19T21:35:47.933Z,100.00
2023-04-19T21:38:16.904Z,100.00
2023-04-19T21:40:46.437Z,100.00
2023-04-19T21:43:15.667Z,100.00
2023-04-19T21:45:46.970Z,100.00
2023-04-19T21:48:16.086Z,100.00
2023-04-19T21:50:46.518Z,100.00
2023-04-19T21:53:15.578Z,100.00
2023-04-19T21:55:44.623Z,100.00
2023-04-19T21:58:14.387Z,100.00
2023-04-19T22:00:44.428Z,100.00
2023-04-19T22:03:13.899Z,100.00
2023-04-19T22:05:43.222Z,100.00
2023-04-19T22:08:13.779Z,100.00
2023-04-19T22:10:42.986Z,100.00
2023-04-19T22:13:13.181Z,100.00
2023-04-19T22:15:42.674Z,100.00
2023-04-19T22:18:11.783Z,100.00
2023-04-19T22:20:41.640Z,100.00
2023-04-19T22:23:10.816Z,100.00
2023-04-19T22:25:41.254Z,100.00
2023-04-19T22:28:10.280Z,100.00
2023-04-19T22:30:39.335Z,100.00
2023-04-19T22:33:08.448Z,100.00
2023-04-19T22:35:37.591Z,100.00
2023-04-19T22:38:06.664Z,100.00
2023-04-19T22:40:35.744Z,100.00
2023-04-19T22:43:06.326Z,100.00
2023-04-19T22:45:35.351Z,100.00
2023-04-19T22:48:04.915Z,100.00
2023-04-19T22:50:34.272Z,100.00
2023-04-19T22:53:03.327Z,100.00
2023-04-19T22:55:32.390Z,100.00
2023-04-19T22:58:01.452Z,100.00
2023-04-19T23:00:32.045Z,100.00
2023-04-19T23:03:01.325Z,100.00
2023-04-19T23:05:30.856Z,100.00
2023-04-19T23:08:00.215Z,100.00
2023-04-19T23:10:29.287Z,100.00
2023-04-19T23:12:59.663Z,100.00
2023-04-19T23:15:29.518Z,100.00
2023-04-19T23:18:02.311Z,100.00
2023-04-19T23:20:32.121Z,100.00
2023-04-19T23:23:01.202Z,100.00
2023-04-19T23:25:30.316Z,100.00
2023-04-19T23:28:01.422Z,100.00
2023-04-19T23:30:32.021Z,100.00
2023-04-19T23:33:02.461Z,100.00
2023-04-19T23:35:31.512Z,100.00
2023-04-19T23:38:00.775Z,100.00
2023-04-19T23:40:29.849Z,100.00
2023-04-19T23:42:58.891Z,100.00
2023-04-19T23:45:28.045Z,100.00
2023-04-19T23:47:57.138Z,100.00
2023-04-19T23:50:27.835Z,100.00
2023-04-19T23:52:56.879Z,100.00
2023-04-19T23:55:26.164Z,100.00
2023-04-19T23:57:55.171Z,100.00
